Ana Sayfa
METAR-TAF:

METAR-TAF

Havaalanları :

Uppsala, İsveç

Enlem: 59-53N, Boylam: 017-36E, yükseklik: 21 m

Güncel hava durumu gözlemi

Rapor saat 20:50 UTC de 27 dakika önce yapıldı.
Rüzgar batıdan 9 kt
Sıcaklık 1°C
Nem 64%
Basınç 990 hPa
Görüş mesafesi 10 km veya daha fazla

METAR: ESCM 232050Z AUTO 28009KT 9999 NCD 01/M05 Q0990

Saat: 22:17 (21:17 UTC)


TAF: eksik

4.000'den fazla havaalanı için hava durumu gözlemleri ve tahminleri (METAR ve TAF raporları).

Kullanılabilir istasyonlar harita üzerinde sarı ve kırmızı noktalarla gösterilir.

İstasyonun adını görmek için fareyi noktanın üzerinde gezdirin.

Sonrasında hava gözlem ve tahminlerini görmek için tıklayın.

Haritayı değiştirmek için: yaklaştırmak için siyah artı işaretli yeşil düğmeye ve uzaklaştırmak için de eksi işaretli düğmeye hızla tıklayın; bitişik haritalar için yeşil okları kullanın.


METAR-TAF: